Time;durP1;ratioP1;P1;durP2;ratioP2;P2;SDS_P1;SDS_P2;PMS_P1;PMS_P2;Temp;Humidity;BMP_temperature;BMP_pressure;BME280_temperature;BME280_humidity;BME280_pressure;Samples;Min_cycle;Max_cycle;Signal;HPM_P1;HPM_P2
2022/09/06 00:00:52;;;;;;;0.80;0.70;;;16.30;95.70;;;;;;5039492;28;20248;-54
2022/09/06 00:03:19;;;;;;;5.67;0.80;;;16.30;95.90;;;;;;5037626;28;20226;-57
2022/09/06 00:05:46;;;;;;;3.63;0.90;;;16.20;96.00;;;;;;5053082;28;20195;-54
2022/09/06 00:08:13;;;;;;;1.17;0.80;;;16.20;96.00;;;;;;5044077;28;20218;-53
2022/09/06 00:10:42;;;;;;;1.10;0.63;;;16.20;99.90;;;;;;5038648;28;20227;-54
2022/09/06 00:13:10;;;;;;;0.70;0.70;;;16.20;99.90;;;;;;5027718;28;20262;-55
2022/09/06 00:15:37;;;;;;;1.40;0.80;;;16.10;98.40;;;;;;5043427;28;20797;-55
2022/09/06 00:18:06;;;;;;;2.37;0.80;;;16.10;98.00;;;;;;5039628;28;20676;-52
2022/09/06 00:20:33;;;;;;;0.83;0.73;;;16.10;96.40;;;;;;5038187;28;20203;-52
2022/09/06 00:23:02;;;;;;;0.80;0.80;;;16.10;96.50;;;;;;5041144;28;20293;-55
2022/09/06 00:25:30;;;;;;;1.50;0.80;;;16.10;96.60;;;;;;5039391;28;20222;-54
2022/09/06 00:28:01;;;;;;;1.23;0.80;;;16.10;96.60;;;;;;5029875;28;20203;-53
2022/09/06 00:30:29;;;;;;;1.10;0.70;;;16.10;96.70;;;;;;5039275;28;20205;-55
2022/09/06 00:32:56;;;;;;;0.53;0.50;;;16.10;96.70;;;;;;5039217;28;20224;-56
2022/09/06 00:35:25;;;;;;;0.80;0.80;;;16.10;96.70;;;;;;5038871;28;20219;-55
2022/09/06 00:37:52;;;;;;;0.90;0.80;;;16.10;96.70;;;;;;5043818;28;20249;-52
2022/09/06 00:40:19;;;;;;;1.77;0.80;;;16.10;96.70;;;;;;5042609;28;20218;-51
2022/09/06 00:42:46;;;;;;;3.27;0.80;;;16.10;96.70;;;;;;5034370;28;20222;-52
2022/09/06 00:45:15;;;;;;;0.97;0.73;;;16.10;96.90;;;;;;5031717;28;20203;-53
2022/09/06 00:47:43;;;;;;;1.20;0.70;;;16.10;96.90;;;;;;5045396;28;20921;-52
2022/09/06 00:50:13;;;;;;;1.97;0.90;;;16.10;96.90;;;;;;5049385;28;20216;-56
2022/09/06 00:52:41;;;;;;;1.57;0.80;;;16.00;96.90;;;;;;5044316;28;21761;-53
2022/09/06 00:55:09;;;;;;;0.77;0.73;;;16.00;96.90;;;;;;5050629;28;20229;-55
2022/09/06 00:57:36;;;;;;;1.23;1.00;;;16.00;96.90;;;;;;5047868;28;20199;-52
2022/09/06 01:00:05;;;;;;;0.80;0.80;;;16.00;96.90;;;;;;5032667;28;20203;-43
2022/09/06 01:02:34;;;;;;;1.40;0.97;;;16.00;96.90;;;;;;5041302;28;20789;-60
2022/09/06 01:05:02;;;;;;;1.40;1.30;;;16.00;96.90;;;;;;5047589;28;20191;-61
2022/09/06 01:07:39;;;;;;;2.10;1.00;;;16.00;96.90;;;;;;5037394;28;21297;-61
2022/09/06 01:10:25;;;;;;;1.00;0.77;;;16.00;96.90;;;;;;5046714;28;20369;-62
2022/09/06 01:13:00;;;;;;;1.93;0.90;;;16.00;96.90;;;;;;5038665;28;20726;-61
2022/09/06 01:15:35;;;;;;;3.13;0.90;;;15.90;96.90;;;;;;5029570;28;20218;-61
2022/09/06 01:18:15;;;;;;;0.80;0.80;;;15.90;96.90;;;;;;5044418;28;20205;-59
2022/09/06 01:20:56;;;;;;;2.13;1.10;;;15.90;97.00;;;;;;5045700;28;20205;-63
2022/09/06 01:23:53;;;;;;;1.93;0.93;;;15.90;97.00;;;;;;5055699;28;20645;-60
2022/09/06 01:26:46;;;;;;;4.37;0.80;;;15.90;96.90;;;;;;5048867;28;20209;-63
2022/09/06 01:29:23;;;;;;;1.53;0.80;;;15.90;96.80;;;;;;5048921;28;20944;-60
2022/09/06 01:31:56;;;;;;;4.10;1.00;;;15.90;96.80;;;;;;5030323;28;20248;-57
2022/09/06 01:34:28;;;;;;;2.60;1.10;;;15.90;96.80;;;;;;5037774;28;20219;-60
2022/09/06 01:36:59;;;;;;;1.17;1.00;;;15.90;96.70;;;;;;5051159;28;20210;-60
2022/09/06 01:39:29;;;;;;;1.77;0.90;;;15.90;96.70;;;;;;5044849;28;20203;-57
2022/09/06 01:41:57;;;;;;;3.50;0.87;;;15.90;96.60;;;;;;5046587;28;20207;-58
2022/09/06 01:44:27;;;;;;;1.50;0.90;;;15.90;96.50;;;;;;5041773;28;20277;-55
2022/09/06 01:47:01;;;;;;;1.60;0.90;;;15.90;96.40;;;;;;5030560;28;20218;-59
2022/09/06 01:49:39;;;;;;;1.23;1.00;;;15.90;96.40;;;;;;5042229;28;20195;-55
2022/09/06 01:52:15;;;;;;;2.37;1.33;;;15.90;96.30;;;;;;5046170;28;20215;-57
2022/09/06 01:54:58;;;;;;;0.80;0.80;;;15.90;96.30;;;;;;5044154;28;20931;-50
2022/09/06 01:57:40;;;;;;;1.27;1.00;;;15.90;96.20;;;;;;5042804;28;20207;-54
2022/09/06 02:00:11;;;;;;;1.20;0.90;;;15.90;96.00;;;;;;5040120;28;20298;-53
2022/09/06 02:02:54;;;;;;;2.00;1.30;;;15.90;95.90;;;;;;5034884;28;20923;-47
2022/09/06 02:05:27;;;;;;;0.80;0.80;;;15.90;95.90;;;;;;5042054;28;20192;-53
2022/09/06 02:07:58;;;;;;;1.63;1.33;;;15.90;95.80;;;;;;5045669;28;20661;-50
2022/09/06 02:10:28;;;;;;;0.83;0.83;;;15.90;95.70;;;;;;5045289;28;20238;-51
2022/09/06 02:13:00;;;;;;;1.50;1.23;;;15.90;95.80;;;;;;5042381;28;20211;-56
2022/09/06 02:15:32;;;;;;;2.20;1.00;;;15.90;95.70;;;;;;5040683;28;20214;-54
2022/09/06 02:18:04;;;;;;;1.40;1.10;;;15.90;95.50;;;;;;5031602;28;20203;-56
2022/09/06 02:20:35;;;;;;;2.80;1.03;;;15.90;95.30;;;;;;5038965;28;20206;-55
2022/09/06 02:23:06;;;;;;;2.83;1.10;;;15.90;95.20;;;;;;5047353;28;20218;-57
2022/09/06 02:25:37;;;;;;;1.27;0.87;;;15.90;95.00;;;;;;5038683;28;20226;-52
2022/09/06 02:28:05;;;;;;;2.37;0.93;;;15.90;94.90;;;;;;5049625;28;20210;-56
2022/09/06 02:30:34;;;;;;;1.00;0.73;;;15.90;94.80;;;;;;5042036;28;20185;-54
2022/09/06 02:33:06;;;;;;;1.20;0.80;;;15.80;95.00;;;;;;5030162;28;20215;-54
2022/09/06 02:35:42;;;;;;;0.67;0.67;;;15.80;94.60;;;;;;5040540;28;20218;-54
2022/09/06 02:38:09;;;;;;;0.97;0.90;;;15.80;94.40;;;;;;5043855;28;20231;-53
2022/09/06 02:40:37;;;;;;;2.10;1.00;;;15.90;94.50;;;;;;5047947;28;20309;-55
2022/09/06 02:43:04;;;;;;;3.70;1.10;;;15.90;94.30;;;;;;5046229;28;20225;-55
2022/09/06 02:45:32;;;;;;;2.17;1.00;;;15.90;94.10;;;;;;5044758;28;20190;-56
2022/09/06 02:47:59;;;;;;;3.07;1.00;;;15.90;93.90;;;;;;5055781;28;20207;-56
2022/09/06 02:50:26;;;;;;;2.23;1.03;;;15.90;93.80;;;;;;5030119;28;20207;-55
2022/09/06 02:53:04;;;;;;;2.53;1.20;;;15.90;93.80;;;;;;5046922;28;20219;-54
2022/09/06 02:55:31;;;;;;;3.70;1.00;;;15.90;93.70;;;;;;5038614;28;20210;-55
2022/09/06 02:57:58;;;;;;;1.07;0.90;;;15.90;93.60;;;;;;5051785;28;20210;-53
2022/09/06 03:00:25;;;;;;;1.90;0.93;;;15.90;93.50;;;;;;5042180;28;20212;-56
2022/09/06 03:02:54;;;;;;;1.43;0.90;;;15.90;93.50;;;;;;5044785;28;20219;-56
2022/09/06 03:05:21;;;;;;;4.37;1.17;;;15.90;93.40;;;;;;5027186;28;20221;-55
2022/09/06 03:07:48;;;;;;;1.10;1.00;;;15.80;93.30;;;;;;5047219;28;20209;-50
2022/09/06 03:10:16;;;;;;;1.13;0.97;;;15.80;93.30;;;;;;5045017;28;20538;-51
2022/09/06 03:12:43;;;;;;;1.33;1.00;;;15.80;93.20;;;;;;5040229;28;20216;-54
2022/09/06 03:15:10;;;;;;;1.50;1.00;;;15.80;93.20;;;;;;5043593;28;20215;-57
2022/09/06 03:17:38;;;;;;;1.73;1.03;;;15.80;93.20;;;;;;5040293;28;20199;-54
2022/09/06 03:20:08;;;;;;;0.80;0.80;;;15.80;93.30;;;;;;5030666;28;20700;-58
2022/09/06 03:22:35;;;;;;;1.23;0.83;;;15.80;93.30;;;;;;5038368;28;20275;-54
2022/09/06 03:25:02;;;;;;;2.50;0.87;;;15.80;93.10;;;;;;5041345;28;20218;-56
2022/09/06 03:27:28;;;;;;;2.20;1.10;;;15.70;93.00;;;;;;5034393;28;20218;-56
2022/09/06 03:29:55;;;;;;;1.33;1.13;;;15.80;92.90;;;;;;5043938;28;20207;-55
2022/09/06 03:32:23;;;;;;;3.30;1.00;;;15.80;92.80;;;;;;5042708;28;20206;-54
2022/09/06 03:34:50;;;;;;;2.60;0.90;;;15.80;92.70;;;;;;5044736;28;20237;-53
2022/09/06 03:37:19;;;;;;;2.30;0.90;;;15.80;92.70;;;;;;5028328;28;20225;-52
2022/09/06 03:39:45;;;;;;;3.43;1.13;;;15.80;92.60;;;;;;5046566;28;20291;-54
2022/09/06 03:42:12;;;;;;;1.67;1.10;;;15.70;92.50;;;;;;5041164;28;20565;-55
2022/09/06 03:44:39;;;;;;;1.80;1.30;;;15.80;92.40;;;;;;5037186;28;20214;-53
2022/09/06 03:47:06;;;;;;;2.40;1.03;;;15.80;92.30;;;;;;5046367;28;20196;-48
2022/09/06 03:49:33;;;;;;;1.57;1.20;;;15.70;92.10;;;;;;5039478;28;20195;-51
2022/09/06 03:52:00;;;;;;;1.43;0.83;;;15.80;92.10;;;;;;5032417;28;20660;-53
2022/09/06 03:54:28;;;;;;;1.50;1.10;;;15.80;91.90;;;;;;5039153;28;20226;-54
2022/09/06 03:56:56;;;;;;;2.77;1.00;;;15.80;91.80;;;;;;5042458;28;20215;-50
2022/09/06 03:59:23;;;;;;;2.03;1.20;;;15.80;91.60;;;;;;5038854;28;20248;-55
2022/09/06 04:01:50;;;;;;;0.80;0.73;;;15.80;91.60;;;;;;5046170;28;20215;-53
2022/09/06 04:04:16;;;;;;;2.23;1.33;;;15.80;91.50;;;;;;5042880;28;20810;-57
2022/09/06 04:06:43;;;;;;;2.80;1.00;;;15.80;91.40;;;;;;5029512;28;20210;-55
2022/09/06 04:09:11;;;;;;;1.83;0.90;;;15.80;91.30;;;;;;5042663;28;20206;-57
2022/09/06 04:11:39;;;;;;;2.47;1.00;;;15.80;91.20;;;;;;5030695;28;20207;-53
2022/09/06 04:14:06;;;;;;;1.30;1.20;;;15.80;91.20;;;;;;5043127;28;20222;-50
2022/09/06 04:16:33;;;;;;;1.87;1.00;;;15.80;91.00;;;;;;5034455;28;20211;-47
2022/09/06 04:19:00;;;;;;;1.67;0.90;;;15.70;90.90;;;;;;5037409;28;20211;-52
2022/09/06 04:21:28;;;;;;;1.47;1.00;;;15.80;90.90;;;;;;5042098;28;20289;-49
2022/09/06 04:23:54;;;;;;;1.90;1.30;;;15.70;90.80;;;;;;5028674;28;20234;-49
2022/09/06 04:26:21;;;;;;;0.80;0.80;;;15.70;90.70;;;;;;5042569;28;20915;-51
2022/09/06 04:28:49;;;;;;;3.87;0.73;;;15.70;90.70;;;;;;5045209;28;20198;-54
2022/09/06 04:31:16;;;;;;;2.23;0.90;;;15.70;90.70;;;;;;5041597;28;20901;-49
2022/09/06 04:33:43;;;;;;;1.77;0.83;;;15.70;90.60;;;;;;5041252;28;20227;-47
2022/09/06 04:36:11;;;;;;;3.20;0.73;;;15.70;90.50;;;;;;5043199;28;20214;-51
2022/09/06 04:38:40;;;;;;;1.13;1.03;;;15.70;90.50;;;;;;5035999;28;20214;-50
2022/09/06 04:41:08;;;;;;;1.20;1.07;;;15.70;90.40;;;;;;5039797;28;20209;-51
2022/09/06 04:43:35;;;;;;;1.70;0.90;;;15.70;90.30;;;;;;5046698;28;20250;-51
2022/09/06 04:46:05;;;;;;;2.10;0.90;;;15.70;90.30;;;;;;5040507;28;20661;-53
2022/09/06 04:48:33;;;;;;;1.00;0.90;;;15.60;90.20;;;;;;5045427;28;21043;-50
2022/09/06 04:50:59;;;;;;;1.43;0.90;;;15.60;90.20;;;;;;5045117;28;20599;-50
2022/09/06 04:53:26;;;;;;;2.47;1.07;;;15.60;90.10;;;;;;5028315;28;24190;-50
2022/09/06 04:55:56;;;;;;;2.13;1.00;;;15.60;90.00;;;;;;5044250;28;20302;-47
2022/09/06 04:58:22;;;;;;;3.00;0.90;;;15.60;89.80;;;;;;5041344;28;20262;-52
2022/09/06 05:00:50;;;;;;;4.20;1.10;;;15.60;90.00;;;;;;5041864;28;20610;-50
2022/09/06 05:03:18;;;;;;;1.10;0.87;;;15.60;89.90;;;;;;5031398;28;20220;-53
2022/09/06 05:05:48;;;;;;;1.30;0.80;;;15.60;89.80;;;;;;5047051;28;20194;-53
2022/09/06 05:08:15;;;;;;;5.30;1.30;;;15.60;89.90;;;;;;5036722;28;20202;-51
2022/09/06 05:10:42;;;;;;;5.40;1.50;;;15.50;89.70;;;;;;5032314;28;20690;-51
2022/09/06 05:13:09;;;;;;;1.30;0.90;;;15.50;89.80;;;;;;5050053;28;20241;-47
2022/09/06 05:15:35;;;;;;;2.90;1.10;;;15.60;89.70;;;;;;5045866;28;20215;-43
2022/09/06 05:18:03;;;;;;;2.13;1.00;;;15.50;89.60;;;;;;5044334;28;20211;-47
2022/09/06 05:20:31;;;;;;;2.10;1.00;;;15.50;89.40;;;;;;5039400;28;20215;-45
2022/09/06 05:22:58;;;;;;;1.00;0.90;;;15.60;89.40;;;;;;5048103;28;20219;-45
2022/09/06 05:25:25;;;;;;;1.33;1.00;;;15.50;89.30;;;;;;5026294;28;20364;-44
2022/09/06 05:27:52;;;;;;;0.93;0.80;;;15.60;89.30;;;;;;5048921;28;20192;-43
2022/09/06 05:30:19;;;;;;;2.30;1.27;;;15.50;89.10;;;;;;5042589;28;20183;-41
2022/09/06 05:32:45;;;;;;;9.67;5.43;;;15.60;88.90;;;;;;5043268;28;20216;-43
2022/09/06 05:35:12;;;;;;;14.57;8.57;;;15.60;88.80;;;;;;5037649;28;21052;-42
2022/09/06 05:37:40;;;;;;;3.60;1.67;;;15.60;88.80;;;;;;5043316;28;20223;-43
2022/09/06 05:40:08;;;;;;;4.30;0.70;;;15.60;89.10;;;;;;5043065;28;20214;-44
2022/09/06 05:42:35;;;;;;;2.03;0.70;;;15.60;88.80;;;;;;5031593;28;20214;-43
2022/09/06 05:45:01;;;;;;;2.73;0.83;;;15.60;88.70;;;;;;5042736;28;20187;-42
2022/09/06 05:47:30;;;;;;;2.30;1.03;;;15.70;88.50;;;;;;5048698;28;20683;-41
2022/09/06 05:49:57;;;;;;;2.63;1.07;;;15.70;88.20;;;;;;5036208;28;20201;-42
2022/09/06 05:52:24;;;;;;;2.13;0.87;;;15.70;87.90;;;;;;5058260;28;20195;-43
2022/09/06 05:54:56;;;;;;;1.70;0.90;;;15.70;88.20;;;;;;5038575;28;20539;-46
2022/09/06 05:57:23;;;;;;;2.30;0.70;;;15.80;87.80;;;;;;5026477;28;20222;-43
2022/09/06 05:59:52;;;;;;;1.07;0.77;;;15.80;87.60;;;;;;5040663;28;20192;-42
2022/09/06 06:02:18;;;;;;;1.90;1.03;;;15.80;87.20;;;;;;5053959;28;20210;-43
2022/09/06 06:04:45;;;;;;;2.43;0.90;;;15.90;87.00;;;;;;5057939;28;20214;-42
2022/09/06 06:07:12;;;;;;;1.13;0.87;;;15.90;86.70;;;;;;5048639;28;20199;-43
2022/09/06 06:09:39;;;;;;;2.83;0.90;;;16.00;86.70;;;;;;5038316;28;20199;-42
2022/09/06 06:12:08;;;;;;;1.73;0.60;;;16.00;86.60;;;;;;5033525;28;20620;-44
2022/09/06 06:14:35;;;;;;;1.10;1.00;;;16.10;86.40;;;;;;5042378;28;20277;-43
2022/09/06 06:17:02;;;;;;;1.33;0.70;;;16.20;86.30;;;;;;5038678;28;20219;-44
2022/09/06 06:19:28;;;;;;;1.23;0.80;;;16.20;86.10;;;;;;5033966;28;20207;-45
2022/09/06 06:21:57;;;;;;;9.40;1.37;;;16.20;85.90;;;;;;5041527;28;20206;-43
2022/09/06 06:24:24;;;;;;;4.70;0.93;;;16.30;85.80;;;;;;5035536;28;20227;-42
2022/09/06 06:26:51;;;;;;;6.20;1.03;;;16.30;85.50;;;;;;5042930;28;20192;-44
2022/09/06 06:29:19;;;;;;;4.70;1.47;;;16.30;85.70;;;;;;5025562;28;20204;-45
2022/09/06 06:31:46;;;;;;;1.57;0.90;;;16.30;85.60;;;;;;5039121;28;20308;-42
2022/09/06 06:34:13;;;;;;;2.93;0.87;;;16.40;85.60;;;;;;5032810;28;20230;-45
2022/09/06 06:36:39;;;;;;;1.13;0.70;;;16.40;85.30;;;;;;5041705;28;20750;-41
2022/09/06 06:39:08;;;;;;;2.20;0.60;;;16.40;85.20;;;;;;5037359;28;20200;-44
2022/09/06 06:41:35;;;;;;;2.20;0.77;;;16.50;85.00;;;;;;5042253;28;20421;-42
2022/09/06 06:44:03;;;;;;;1.73;0.60;;;16.50;85.20;;;;;;5031839;28;20588;-43
2022/09/06 06:46:33;;;;;;;1.87;0.80;;;16.50;85.30;;;;;;5032711;28;20953;-44
2022/09/06 06:49:00;;;;;;;1.63;0.83;;;16.50;85.00;;;;;;5041026;28;20683;-42
2022/09/06 06:51:29;;;;;;;2.70;0.97;;;16.60;84.80;;;;;;5042772;28;20233;-43
2022/09/06 06:53:56;;;;;;;1.83;0.90;;;16.60;84.70;;;;;;5046254;28;20226;-43
2022/09/06 06:56:26;;;;;;;1.37;0.73;;;16.70;84.90;;;;;;5037743;28;20227;-44
2022/09/06 06:58:54;;;;;;;4.17;1.13;;;16.80;84.70;;;;;;5041824;28;20202;-41
2022/09/06 07:01:22;;;;;;;0.80;0.80;;;16.80;84.50;;;;;;5023630;28;20207;-41
2022/09/06 07:03:50;;;;;;;4.40;0.90;;;16.80;84.70;;;;;;5035020;28;20595;-42
2022/09/06 07:06:18;;;;;;;2.73;0.90;;;16.90;84.60;;;;;;5035313;28;20225;-41
2022/09/06 07:08:46;;;;;;;1.27;0.80;;;16.90;84.30;;;;;;5040089;28;20273;-43
2022/09/06 07:11:14;;;;;;;2.17;1.17;;;16.90;84.40;;;;;;5035981;28;20200;-43
2022/09/06 07:13:41;;;;;;;2.87;0.70;;;17.00;84.30;;;;;;5041387;28;20564;-43
2022/09/06 07:16:14;;;;;;;0.80;0.80;;;17.00;84.20;;;;;;5026890;28;20257;-44
2022/09/06 07:18:41;;;;;;;0.97;0.90;;;17.10;84.40;;;;;;5039377;28;20209;-43
2022/09/06 07:21:15;;;;;;;4.80;1.00;;;17.10;84.20;;;;;;5038696;28;20208;-43
2022/09/06 07:23:42;;;;;;;3.97;1.73;;;17.10;84.20;;;;;;5034450;28;20303;-42
2022/09/06 07:26:14;;;;;;;17.87;9.27;;;17.20;84.50;;;;;;5036914;28;20207;-43
2022/09/06 07:28:40;;;;;;;1.37;0.90;;;17.20;84.40;;;;;;5040282;28;20227;-43
2022/09/06 07:31:07;;;;;;;2.03;0.93;;;17.20;85.00;;;;;;5023603;28;20218;-49
2022/09/06 07:33:35;;;;;;;6.30;1.20;;;17.10;84.20;;;;;;5037942;28;20273;-43
2022/09/06 07:36:03;;;;;;;7.57;1.00;;;17.10;84.30;;;;;;5037341;28;20191;-43
2022/09/06 07:38:33;;;;;;;2.10;0.70;;;17.20;84.40;;;;;;5047825;28;20879;-42
2022/09/06 07:41:01;;;;;;;1.27;1.00;;;17.10;84.40;;;;;;5044207;28;20559;-43
2022/09/06 07:43:28;;;;;;;2.60;0.80;;;17.10;84.60;;;;;;5036211;28;20250;-44
2022/09/06 07:46:00;;;;;;;1.53;0.80;;;17.10;84.70;;;;;;5024341;28;20207;-42
2022/09/06 07:48:29;;;;;;;1.60;1.30;;;17.10;84.80;;;;;;5035260;28;20199;-45
2022/09/06 07:51:03;;;;;;;1.17;0.90;;;17.10;84.80;;;;;;5039639;28;20736;-44
2022/09/06 07:53:32;;;;;;;3.10;1.03;;;17.20;84.90;;;;;;5036096;28;20223;-43
2022/09/06 07:56:00;;;;;;;2.37;1.00;;;17.20;85.10;;;;;;5034136;28;20207;-44
2022/09/06 07:58:27;;;;;;;0.83;0.83;;;17.20;85.20;;;;;;5039940;28;20211;-42
2022/09/06 08:00:54;;;;;;;4.37;1.10;;;17.30;85.30;;;;;;5028708;28;20203;-44
2022/09/06 08:03:20;;;;;;;4.73;2.17;;;17.30;85.30;;;;;;5034978;28;20219;-43
2022/09/06 08:05:49;;;;;;;4.70;1.40;;;17.30;85.00;;;;;;5041091;28;20671;-43
2022/09/06 08:08:16;;;;;;;2.00;1.03;;;17.30;85.10;;;;;;5033712;28;20223;-44
2022/09/06 08:10:44;;;;;;;2.43;0.90;;;17.30;85.10;;;;;;5045321;28;20206;-42
2022/09/06 08:13:10;;;;;;;1.20;0.90;;;17.30;85.20;;;;;;5033616;28;20723;-42
2022/09/06 08:15:37;;;;;;;2.17;1.03;;;17.30;85.40;;;;;;5039115;28;20199;-42
2022/09/06 08:18:04;;;;;;;1.27;0.70;;;17.30;85.40;;;;;;5025750;28;20892;-46
2022/09/06 08:20:30;;;;;;;2.93;1.10;;;17.30;85.60;;;;;;5040218;28;20199;-46
2022/09/06 08:22:57;;;;;;;1.50;0.93;;;17.40;85.60;;;;;;5042955;28;20222;-45
2022/09/06 08:25:24;;;;;;;1.73;1.10;;;17.50;85.60;;;;;;5034246;28;20265;-44
2022/09/06 08:27:52;;;;;;;1.43;1.10;;;17.50;85.60;;;;;;5037161;28;20213;-45
2022/09/06 08:30:19;;;;;;;2.03;1.07;;;17.60;85.70;;;;;;5033908;28;20253;-42
2022/09/06 08:32:47;;;;;;;3.63;1.30;;;17.60;85.60;;;;;;5028941;28;20231;-44
2022/09/06 08:35:14;;;;;;;4.27;1.60;;;17.70;85.50;;;;;;5033908;28;20928;-45
2022/09/06 08:37:41;;;;;;;4.20;1.13;;;17.70;85.40;;;;;;5040880;28;20314;-46
2022/09/06 08:40:09;;;;;;;1.30;1.20;;;17.80;85.60;;;;;;5036367;28;20200;-44
2022/09/06 08:42:38;;;;;;;1.80;1.10;;;17.90;85.50;;;;;;5036604;28;20309;-45
2022/09/06 08:45:18;;;;;;;4.10;1.10;;;17.90;85.40;;;;;;5034685;28;20202;-45
2022/09/06 08:47:45;;;;;;;7.33;1.50;;;17.90;85.50;;;;;;5025182;28;20593;-48
2022/09/06 08:50:12;;;;;;;5.53;1.10;;;18.00;85.70;;;;;;5034328;28;20207;-47
2022/09/06 08:52:51;;;;;;;3.43;1.23;;;18.00;85.50;;;;;;5035687;28;20226;-46
2022/09/06 08:55:31;;;;;;;3.67;1.90;;;18.00;85.30;;;;;;5033306;28;20228;-44
2022/09/06 08:58:21;;;;;;;1.50;1.10;;;18.10;85.70;;;;;;5044115;28;20217;-46
2022/09/06 09:00:57;;;;;;;1.37;1.10;;;18.20;85.70;;;;;;5038269;28;20208;-45
2022/09/06 09:03:26;;;;;;;1.97;1.47;;;18.20;85.60;;;;;;5023208;28;20237;-47
2022/09/06 09:05:53;;;;;;;4.23;1.33;;;18.30;85.60;;;;;;5038764;28;20202;-45
2022/09/06 09:08:27;;;;;;;2.90;1.37;;;18.30;85.60;;;;;;5047255;28;20531;-46
2022/09/06 09:10:58;;;;;;;3.80;1.40;;;18.30;85.80;;;;;;5038219;28;20195;-46
2022/09/06 09:13:30;;;;;;;2.47;1.23;;;18.30;85.90;;;;;;5039483;28;20239;-48
2022/09/06 09:15:58;;;;;;;2.90;1.30;;;18.40;86.10;;;;;;5041388;28;20286;-47
2022/09/06 09:18:29;;;;;;;5.93;1.50;;;18.40;86.10;;;;;;5030105;28;20226;-45
2022/09/06 09:20:57;;;;;;;2.13;1.30;;;18.40;85.90;;;;;;5043076;28;20207;-47
2022/09/06 09:23:24;;;;;;;3.30;1.53;;;18.30;85.70;;;;;;5044368;28;20230;-46
2022/09/06 09:25:52;;;;;;;1.50;1.23;;;18.30;86.00;;;;;;5039399;28;20195;-44
2022/09/06 09:28:23;;;;;;;2.30;1.53;;;18.30;86.00;;;;;;5053002;28;20199;-48
2022/09/06 09:30:52;;;;;;;2.60;1.60;;;18.30;86.10;;;;;;5039876;28;20203;-42
2022/09/06 09:33:29;;;;;;;3.67;1.30;;;18.30;86.10;;;;;;5030117;28;20227;-44
2022/09/06 09:35:59;;;;;;;3.60;1.30;;;18.30;86.50;;;;;;5043380;28;20585;-43
2022/09/06 09:38:27;;;;;;;4.03;1.60;;;18.30;86.40;;;;;;5043507;28;20258;-44
2022/09/06 09:40:56;;;;;;;1.43;1.13;;;18.30;86.70;;;;;;5043121;28;20225;-47
2022/09/06 09:43:25;;;;;;;5.37;1.30;;;18.40;86.70;;;;;;5039784;28;20234;-46
2022/09/06 09:46:13;;;;;;;4.23;1.50;;;18.40;86.90;;;;;;5040992;28;20338;-45
2022/09/06 09:48:48;;;;;;;1.40;1.30;;;18.50;87.20;;;;;;5026676;28;20218;-45
2022/09/06 09:51:21;;;;;;;5.33;1.50;;;18.50;87.10;;;;;;5044420;28;20195;-46
2022/09/06 09:53:53;;;;;;;2.93;1.60;;;18.50;86.90;;;;;;5047289;28;20229;-45
2022/09/06 09:56:28;;;;;;;1.67;1.50;;;18.60;87.10;;;;;;5042866;28;20191;-46
2022/09/06 09:58:57;;;;;;;4.10;1.90;;;18.60;87.10;;;;;;5032132;28;20242;-44
2022/09/06 10:01:29;;;;;;;1.57;1.40;;;18.70;86.90;;;;;;5036163;28;20211;-44
2022/09/06 10:04:09;;;;;;;2.87;1.60;;;18.70;86.70;;;;;;5038542;28;20230;-44
2022/09/06 10:06:37;;;;;;;3.07;1.97;;;18.80;87.00;;;;;;5043308;28;20668;-44
2022/09/06 10:09:15;;;;;;;6.57;1.83;;;18.80;86.70;;;;;;5035380;28;20195;-44
2022/09/06 10:11:53;;;;;;;4.40;1.67;;;18.90;86.80;;;;;;5041625;28;20211;-48
2022/09/06 10:14:30;;;;;;;4.10;1.63;;;18.90;86.60;;;;;;5039054;28;20221;-45
2022/09/06 10:16:59;;;;;;;2.07;1.60;;;19.00;86.90;;;;;;5030681;28;20198;-44
2022/09/06 10:19:43;;;;;;;3.27;1.90;;;19.00;86.80;;;;;;5029522;28;20230;-48
2022/09/06 10:22:31;;;;;;;1.70;1.60;;;19.10;87.10;;;;;;5039506;28;20318;-43
2022/09/06 10:25:32;;;;;;;3.40;1.63;;;19.20;86.90;;;;;;5035554;28;20872;-48
2022/09/06 10:28:12;;;;;;;3.30;1.87;;;19.20;86.70;;;;;;5029971;28;20207;-43
2022/09/06 10:30:47;;;;;;;4.80;1.63;;;19.20;86.90;;;;;;5046302;28;20213;-46
2022/09/06 10:33:26;;;;;;;3.60;1.50;;;19.20;87.30;;;;;;5037440;28;21290;-44
2022/09/06 10:35:56;;;;;;;3.07;1.67;;;19.30;87.40;;;;;;5023488;28;20234;-48
2022/09/06 10:38:41;;;;;;;5.03;1.80;;;19.30;87.30;;;;;;5044853;28;20229;-44
2022/09/06 10:41:25;;;;;;;4.57;1.70;;;19.30;87.20;;;;;;5038806;28;20195;-45
2022/09/06 10:44:07;;;;;;;4.97;1.73;;;19.30;86.80;;;;;;5031195;28;20215;-44
2022/09/06 10:46:35;;;;;;;2.80;1.97;;;19.30;86.60;;;;;;5040313;28;20218;-44
2022/09/06 10:49:02;;;;;;;4.17;1.70;;;19.30;86.10;;;;;;5041291;28;20264;-47
2022/09/06 10:51:39;;;;;;;4.17;1.73;;;19.30;85.70;;;;;;5028770;28;20211;-44
2022/09/06 10:54:09;;;;;;;3.53;1.83;;;19.40;85.40;;;;;;5040713;28;20963;-45
2022/09/06 10:56:43;;;;;;;4.20;1.53;;;19.40;85.30;;;;;;5042619;28;20219;-43
2022/09/06 10:59:17;;;;;;;2.70;1.60;;;19.40;85.00;;;;;;5040250;28;20805;-45
2022/09/06 11:01:52;;;;;;;4.47;2.37;;;19.40;84.70;;;;;;5044908;28;20683;-44
2022/09/06 11:04:26;;;;;;;2.70;1.50;;;19.40;84.50;;;;;;5036827;28;20234;-44
2022/09/06 11:06:59;;;;;;;3.40;1.93;;;19.40;84.60;;;;;;5027292;28;20850;-46
2022/09/06 11:09:34;;;;;;;3.70;1.90;;;19.40;84.20;;;;;;5044234;28;20206;-45
2022/09/06 11:12:07;;;;;;;1.87;1.50;;;19.40;84.30;;;;;;5047949;28;20748;-45
2022/09/06 11:14:36;;;;;;;1.73;1.43;;;19.40;84.10;;;;;;5041370;28;20420;-48
2022/09/06 11:17:07;;;;;;;4.40;1.90;;;19.40;84.20;;;;;;5038266;28;20979;-46
2022/09/06 11:19:41;;;;;;;2.57;1.47;;;19.50;84.10;;;;;;5037388;28;20219;-46
2022/09/06 11:22:28;;;;;;;6.03;1.60;;;19.50;84.30;;;;;;5028873;28;20207;-45
2022/09/06 11:25:34;;;;;;;4.17;1.70;;;19.50;84.10;;;;;;5029934;28;20747;-45
2022/09/06 11:28:03;;;;;;;7.40;1.60;;;19.50;83.90;;;;;;5041487;28;20279;-45
2022/09/06 11:30:30;;;;;;;2.17;1.43;;;19.50;84.10;;;;;;5048856;28;20742;-48
2022/09/06 11:33:15;;;;;;;1.30;1.20;;;19.50;83.90;;;;;;5041841;28;20711;-47
2022/09/06 11:35:43;;;;;;;1.60;1.33;;;19.50;83.50;;;;;;5048560;28;20211;-46
2022/09/06 11:38:21;;;;;;;3.00;1.50;;;19.40;83.80;;;;;;5029404;28;20342;-46
2022/09/06 11:40:52;;;;;;;2.53;1.40;;;19.50;83.70;;;;;;5038551;28;20203;-46
2022/09/06 11:43:45;;;;;;;3.13;1.40;;;19.50;83.70;;;;;;5039233;28;20222;-45
2022/09/06 11:47:06;;;;;;;3.60;1.80;;;19.40;82.80;;;;;;5028706;28;21595;-43
2022/09/06 11:49:40;;;;;;;1.40;1.23;;;19.40;82.90;;;;;;5045453;28;20202;-44
2022/09/06 11:52:59;;;;;;;2.23;1.27;;;19.50;83.00;;;;;;5035158;28;20254;-45
2022/09/06 11:55:37;;;;;;;4.57;1.57;;;19.60;82.90;;;;;;5022854;28;20612;-45
2022/09/06 11:58:08;;;;;;;1.80;1.67;;;19.70;83.00;;;;;;5035301;28;20222;-46
2022/09/06 12:00:35;;;;;;;2.40;1.20;;;19.80;82.80;;;;;;5041942;28;20317;-45
2022/09/06 12:03:07;;;;;;;2.83;1.77;;;19.80;82.90;;;;;;5034061;28;20223;-48
2022/09/06 12:06:13;;;;;;;5.30;1.70;;;19.80;81.90;;;;;;5044301;28;20281;-45
2022/09/06 12:08:41;;;;;;;4.83;1.63;;;19.80;82.60;;;;;;5048824;28;20195;-47
2022/09/06 12:11:28;;;;;;;3.20;1.50;;;19.80;82.10;;;;;;5025088;28;20201;-46
2022/09/06 12:14:02;;;;;;;5.47;1.70;;;19.80;81.90;;;;;;5032440;28;20273;-49
2022/09/06 12:17:07;;;;;;;5.67;1.80;;;19.80;81.70;;;;;;5044678;28;20729;-46
2022/09/06 12:19:47;;;;;;;3.47;1.47;;;19.90;81.50;;;;;;5047359;28;20215;-47
2022/09/06 12:22:52;;;;;;;1.93;1.57;;;19.90;81.90;;;;;;5049083;28;20337;-44
2022/09/06 12:25:40;;;;;;;2.83;1.60;;;20.00;81.70;;;;;;5028488;28;20207;-44
2022/09/06 12:28:18;;;;;;;1.73;1.27;;;20.10;81.70;;;;;;5029482;28;20187;-46
2022/09/06 12:30:47;;;;;;;1.70;1.57;;;20.10;81.60;;;;;;5033786;28;20203;-48
2022/09/06 12:33:18;;;;;;;2.73;2.00;;;20.20;81.90;;;;;;5043106;28;20306;-43
2022/09/06 12:35:47;;;;;;;2.60;1.53;;;20.20;82.10;;;;;;5032294;28;20584;-46
2022/09/06 12:38:15;;;;;;;4.13;1.50;;;20.20;82.40;;;;;;5053830;28;20218;-44
2022/09/06 12:40:46;;;;;;;3.83;1.50;;;20.20;82.50;;;;;;5051698;28;20199;-49
2022/09/06 12:43:15;;;;;;;1.33;1.23;;;20.20;83.20;;;;;;5029358;28;20226;-44
2022/09/06 12:45:43;;;;;;;2.90;1.40;;;20.20;83.50;;;;;;5047848;28;20199;-48
2022/09/06 12:48:12;;;;;;;5.40;1.47;;;20.20;83.60;;;;;;5043213;28;20206;-44
2022/09/06 12:50:40;;;;;;;4.10;1.50;;;20.20;83.40;;;;;;5044716;28;20199;-45
2022/09/06 12:53:23;;;;;;;1.40;1.30;;;20.10;83.40;;;;;;5035802;28;20238;-49
2022/09/06 12:56:02;;;;;;;1.53;1.30;;;20.10;82.90;;;;;;5039048;28;20204;-47
2022/09/06 12:58:29;;;;;;;1.80;1.20;;;20.00;83.10;;;;;;5019837;28;20212;-44
2022/09/06 13:01:02;;;;;;;2.40;1.50;;;20.00;83.20;;;;;;5037282;28;20790;-49
2022/09/06 13:03:32;;;;;;;2.37;1.40;;;19.90;83.00;;;;;;5047859;28;20222;-49
2022/09/06 13:06:03;;;;;;;3.50;1.30;;;19.90;83.30;;;;;;5045189;28;20210;-47
2022/09/06 13:08:34;;;;;;;3.87;1.40;;;19.90;84.10;;;;;;5057315;28;20663;-44